Time;durP1;ratioP1;P1;durP2;ratioP2;P2;SDS_P1;SDS_P2;PMS_P1;PMS_P2;Temp;Humidity;BMP_temperature;BMP_pressure;BME280_temperature;BME280_humidity;BME280_pressure;Samples;Min_cycle;Max_cycle;Signal;HPM_P1;HPM_P2
2021/08/18 03:30:36;;;;;;;12.23;2.90;;;15.10;99.70;;;;;;5051917;28;20281;-68
2021/08/18 03:33:02;;;;;;;10.30;3.60;;;15.00;99.70;;;;;;5051562;28;20209;-68
2021/08/18 03:35:29;;;;;;;15.10;4.40;;;15.00;99.70;;;;;;5051471;28;20468;-68
2021/08/18 03:37:56;;;;;;;11.07;3.83;;;15.00;99.70;;;;;;5051352;28;20450;-69
2021/08/18 03:40:23;;;;;;;7.60;3.50;;;14.90;99.70;;;;;;5051546;28;20439;-68
2021/08/18 03:42:50;;;;;;;8.70;3.50;;;15.00;99.70;;;;;;5051433;28;20447;-68
2021/08/18 03:45:16;;;;;;;11.37;2.97;;;15.00;99.70;;;;;;5051220;28;20476;-68
2021/08/18 03:47:44;;;;;;;7.17;2.70;;;14.90;99.70;;;;;;5051126;28;20443;-68
2021/08/18 03:50:11;;;;;;;7.47;2.90;;;15.00;99.70;;;;;;5050836;28;20459;-68
2021/08/18 03:52:40;;;;;;;8.00;3.47;;;15.00;99.70;;;;;;5051363;28;20454;-68
2021/08/18 03:55:08;;;;;;;8.60;3.47;;;14.80;99.70;;;;;;5050870;28;20459;-68
2021/08/18 03:57:35;;;;;;;4.80;2.73;;;14.80;99.70;;;;;;5050942;28;20451;-68
2021/08/18 04:00:02;;;;;;;7.87;3.33;;;14.80;99.70;;;;;;5050990;28;20448;-69
2021/08/18 04:02:28;;;;;;;5.10;2.80;;;14.80;99.70;;;;;;5051172;28;20444;-69
2021/08/18 04:04:56;;;;;;;7.87;3.07;;;14.90;99.70;;;;;;5050717;28;21006;-68
2021/08/18 04:07:23;;;;;;;7.57;3.00;;;14.90;99.70;;;;;;5050717;28;20448;-68
2021/08/18 04:09:50;;;;;;;10.13;4.00;;;15.00;99.70;;;;;;5051007;28;20440;-68
2021/08/18 04:12:17;;;;;;;6.20;2.10;;;15.00;99.70;;;;;;5050457;28;20820;-68
2021/08/18 04:14:43;;;;;;;9.13;2.70;;;15.10;99.70;;;;;;5050263;28;20456;-68
2021/08/18 04:17:10;;;;;;;9.43;3.67;;;15.00;99.70;;;;;;5050610;28;20448;-68
2021/08/18 04:19:37;;;;;;;6.70;2.70;;;15.10;99.70;;;;;;5051166;28;20444;-68
2021/08/18 04:22:05;;;;;;;6.23;2.50;;;14.90;99.70;;;;;;5050596;28;20443;-68
2021/08/18 04:24:32;;;;;;;7.13;3.40;;;15.00;99.70;;;;;;5050400;28;20499;-68
2021/08/18 04:26:59;;;;;;;7.10;2.80;;;14.90;99.70;;;;;;5050380;28;20454;-68
2021/08/18 04:29:25;;;;;;;7.17;2.93;;;14.90;99.70;;;;;;5050753;28;20443;-68
2021/08/18 04:31:52;;;;;;;7.80;2.47;;;14.80;99.70;;;;;;5050490;28;20448;-69
2021/08/18 04:34:19;;;;;;;7.77;2.83;;;14.90;99.70;;;;;;5050401;28;20517;-68
2021/08/18 04:36:46;;;;;;;10.70;3.63;;;14.90;99.70;;;;;;5050010;28;20446;-68
2021/08/18 04:39:14;;;;;;;7.27;2.73;;;14.90;99.70;;;;;;5050517;28;20443;-68
2021/08/18 04:41:41;;;;;;;8.40;3.03;;;14.90;99.70;;;;;;5050294;28;20448;-68
2021/08/18 04:44:07;;;;;;;8.07;3.03;;;14.90;99.70;;;;;;5050358;28;20480;-68
2021/08/18 04:46:34;;;;;;;8.37;3.10;;;14.80;99.70;;;;;;5049826;28;21005;-68
2021/08/18 04:49:01;;;;;;;6.70;2.47;;;14.90;99.70;;;;;;5050365;28;20947;-69
2021/08/18 04:51:28;;;;;;;9.40;3.43;;;14.90;99.70;;;;;;5050198;28;20451;-68
2021/08/18 04:53:54;;;;;;;7.50;3.00;;;15.00;99.70;;;;;;5050375;28;20446;-68
2021/08/18 04:56:22;;;;;;;9.60;3.20;;;14.90;99.70;;;;;;5049850;28;20467;-68
2021/08/18 04:58:49;;;;;;;8.50;3.07;;;15.00;99.70;;;;;;5050281;28;20451;-68
2021/08/18 05:01:15;;;;;;;9.00;3.20;;;15.20;99.70;;;;;;5049425;28;20444;-68
2021/08/18 05:03:42;;;;;;;9.53;2.97;;;15.10;99.70;;;;;;5050054;28;20899;-68
2021/08/18 05:06:09;;;;;;;8.03;3.47;;;14.90;99.70;;;;;;5049917;28;20466;-69
2021/08/18 05:08:36;;;;;;;7.33;3.23;;;15.00;99.70;;;;;;5050086;28;21093;-69
2021/08/18 05:11:02;;;;;;;6.90;3.20;;;14.90;99.70;;;;;;5049483;28;20443;-68
2021/08/18 05:13:30;;;;;;;8.90;3.07;;;14.90;99.70;;;;;;5049913;28;20451;-68
2021/08/18 05:15:57;;;;;;;8.93;3.43;;;14.80;99.70;;;;;;5049309;28;20874;-69
2021/08/18 05:18:24;;;;;;;7.47;3.40;;;14.80;99.70;;;;;;5049903;28;20802;-68
2021/08/18 05:20:50;;;;;;;6.07;2.67;;;14.80;99.70;;;;;;5049954;28;20448;-68
2021/08/18 05:23:18;;;;;;;7.40;3.63;;;14.70;99.70;;;;;;5049999;28;20808;-68
2021/08/18 05:25:45;;;;;;;8.03;3.83;;;14.90;99.70;;;;;;5059010;22;20889;-67
2021/08/18 05:28:13;;;;;;;6.17;2.83;;;15.00;99.70;;;;;;5028852;28;20441;-68
2021/08/18 05:30:41;;;;;;;5.77;2.73;;;15.00;99.70;;;;;;5030484;28;20452;-68
2021/08/18 05:33:08;;;;;;;6.37;3.33;;;15.00;99.70;;;;;;5030135;28;20448;-68
2021/08/18 05:35:35;;;;;;;6.93;3.83;;;14.90;99.70;;;;;;5030074;28;20487;-68
2021/08/18 05:38:01;;;;;;;10.10;3.53;;;14.90;99.70;;;;;;5029464;28;20444;-68
2021/08/18 05:40:28;;;;;;;6.63;2.70;;;14.90;99.70;;;;;;5030062;28;20441;-68
2021/08/18 05:42:55;;;;;;;7.53;2.80;;;14.80;99.70;;;;;;5029820;28;20440;-68
2021/08/18 05:45:21;;;;;;;8.27;3.70;;;14.80;99.70;;;;;;5029704;28;20516;-68
2021/08/18 05:47:49;;;;;;;7.67;2.70;;;15.00;99.70;;;;;;5029576;28;20467;-68
2021/08/18 05:50:16;;;;;;;10.37;3.73;;;15.00;99.70;;;;;;5030075;28;20452;-68
2021/08/18 05:52:43;;;;;;;6.73;2.67;;;14.90;99.70;;;;;;5029965;28;20445;-68
2021/08/18 05:55:10;;;;;;;6.97;2.93;;;14.90;99.70;;;;;;5029740;28;20823;-68
2021/08/18 05:57:37;;;;;;;6.67;3.20;;;15.00;99.70;;;;;;5029683;28;20448;-68
2021/08/18 06:00:04;;;;;;;6.33;3.43;;;15.10;99.70;;;;;;5029631;28;20440;-68
2021/08/18 06:02:31;;;;;;;11.03;3.00;;;15.00;99.70;;;;;;5029748;28;20460;-68
2021/08/18 06:04:59;;;;;;;11.30;3.07;;;14.90;99.70;;;;;;5029437;28;20488;-68
2021/08/18 06:07:26;;;;;;;8.00;3.13;;;14.90;99.70;;;;;;5029393;28;20563;-68
2021/08/18 06:09:52;;;;;;;6.10;2.50;;;14.90;99.70;;;;;;5029520;28;20455;-68
2021/08/18 06:12:19;;;;;;;8.60;3.83;;;14.90;99.70;;;;;;5030329;28;20436;-68
2021/08/18 06:14:46;;;;;;;5.60;3.03;;;15.00;99.70;;;;;;5032726;28;20820;-68
2021/08/18 06:17:12;;;;;;;9.77;3.87;;;15.00;99.70;;;;;;5033074;28;20472;-68
2021/08/18 06:19:39;;;;;;;6.77;2.90;;;15.10;99.70;;;;;;5033135;28;20448;-68
2021/08/18 06:22:07;;;;;;;9.83;3.03;;;15.10;99.70;;;;;;5033379;28;20472;-68
2021/08/18 06:24:41;;;;;;;6.53;3.10;;;15.20;99.70;;;;;;5032870;28;20503;-68
2021/08/18 06:27:09;;;;;;;5.50;3.00;;;15.30;99.70;;;;;;5032802;28;20790;-68
2021/08/18 06:29:36;;;;;;;7.27;3.40;;;15.30;99.70;;;;;;5033224;28;20829;-68
2021/08/18 06:32:03;;;;;;;8.77;2.50;;;15.40;99.70;;;;;;5033113;28;20444;-68
2021/08/18 06:34:29;;;;;;;6.93;2.53;;;15.40;99.70;;;;;;5032801;28;20444;-68
2021/08/18 06:37:01;;;;;;;11.27;3.17;;;15.50;99.70;;;;;;5032616;28;20483;-68
2021/08/18 06:39:29;;;;;;;7.20;3.00;;;15.60;99.70;;;;;;5032774;28;20441;-68
2021/08/18 06:41:56;;;;;;;6.80;2.77;;;15.70;99.70;;;;;;5032917;28;20448;-68
2021/08/18 06:44:23;;;;;;;10.37;3.00;;;15.80;99.70;;;;;;5032428;28;20480;-68
2021/08/18 06:46:50;;;;;;;7.40;2.50;;;15.70;99.70;;;;;;5032343;28;20830;-68
2021/08/18 06:49:16;;;;;;;11.70;3.63;;;15.70;99.70;;;;;;5032694;28;20459;-68
2021/08/18 06:51:43;;;;;;;7.80;3.10;;;15.70;99.70;;;;;;5032385;28;20444;-68
2021/08/18 06:54:10;;;;;;;8.27;3.00;;;15.70;99.70;;;;;;5032377;28;20448;-68
2021/08/18 06:56:38;;;;;;;6.20;2.60;;;15.70;99.70;;;;;;5032122;28;20469;-68
2021/08/18 06:59:05;;;;;;;6.93;3.40;;;15.80;99.70;;;;;;5032418;28;20452;-68
2021/08/18 07:01:32;;;;;;;7.47;2.77;;;15.90;99.70;;;;;;5032337;28;20445;-68
2021/08/18 07:03:58;;;;;;;9.20;3.20;;;15.90;99.70;;;;;;5032417;28;20806;-68
2021/08/18 07:06:25;;;;;;;8.10;2.50;;;15.80;99.70;;;;;;5031853;28;20468;-67
2021/08/18 07:08:52;;;;;;;8.77;2.90;;;15.80;99.70;;;;;;5032352;28;20467;-68
2021/08/18 07:11:18;;;;;;;8.30;2.87;;;16.00;99.70;;;;;;5031386;28;20448;-68
2021/08/18 07:13:46;;;;;;;10.80;3.30;;;16.30;99.70;;;;;;5031412;28;20448;-68
2021/08/18 07:16:13;;;;;;;6.23;3.13;;;16.50;99.70;;;;;;5031760;28;20468;-68
2021/08/18 07:18:40;;;;;;;6.83;3.53;;;16.50;99.70;;;;;;5032030;28;20447;-68
2021/08/18 07:21:07;;;;;;;5.83;2.60;;;16.40;99.70;;;;;;5031924;28;20448;-68
2021/08/18 07:23:34;;;;;;;7.60;2.90;;;16.50;99.70;;;;;;5031243;28;20456;-68
2021/08/18 07:26:01;;;;;;;7.20;2.57;;;16.40;99.70;;;;;;5031250;28;20889;-68
2021/08/18 07:28:28;;;;;;;6.87;2.20;;;16.60;99.70;;;;;;5031818;28;20445;-68
2021/08/18 07:30:56;;;;;;;7.47;2.90;;;16.70;99.70;;;;;;5031705;28;20834;-68
2021/08/18 07:33:22;;;;;;;7.10;2.80;;;16.60;99.70;;;;;;5031791;28;20445;-68
2021/08/18 07:35:49;;;;;;;5.73;2.40;;;16.40;99.70;;;;;;5031557;28;20970;-68
2021/08/18 07:38:16;;;;;;;5.47;2.63;;;16.50;99.70;;;;;;5031572;28;20456;-68
2021/08/18 07:40:42;;;;;;;7.40;2.87;;;16.60;99.70;;;;;;5031773;28;20791;-68
2021/08/18 07:43:09;;;;;;;6.37;2.70;;;16.80;99.70;;;;;;5031356;28;20440;-68
2021/08/18 07:45:36;;;;;;;5.97;2.70;;;16.90;99.70;;;;;;5031620;28;20488;-68
2021/08/18 07:48:04;;;;;;;12.53;2.60;;;16.90;99.70;;;;;;5031090;28;20448;-68
2021/08/18 07:50:31;;;;;;;4.70;2.40;;;17.00;99.70;;;;;;5031663;28;20943;-68
2021/08/18 07:52:58;;;;;;;6.13;2.70;;;17.10;99.70;;;;;;5031229;28;20510;-67
2021/08/18 07:55:25;;;;;;;5.27;2.97;;;16.90;99.70;;;;;;5031523;28;20467;-68
2021/08/18 07:57:51;;;;;;;8.00;3.10;;;16.80;99.70;;;;;;5030899;28;20838;-68
2021/08/18 08:00:18;;;;;;;6.67;2.43;;;17.00;99.70;;;;;;5031333;28;20960;-68
2021/08/18 08:02:46;;;;;;;4.60;2.00;;;17.10;99.70;;;;;;5030972;28;20451;-68
2021/08/18 08:05:15;;;;;;;4.63;2.10;;;17.00;99.70;;;;;;5031044;28;20975;-68
2021/08/18 08:07:42;;;;;;;4.13;2.13;;;17.10;99.70;;;;;;5030544;28;20453;-68
2021/08/18 08:10:11;;;;;;;4.33;2.07;;;17.30;99.70;;;;;;5031156;28;20444;-68
2021/08/18 08:12:39;;;;;;;5.60;2.00;;;17.30;99.70;;;;;;5030628;28;20456;-68
2021/08/18 08:15:10;;;;;;;3.83;1.73;;;17.30;99.70;;;;;;5030023;28;20441;-68
2021/08/18 08:17:37;;;;;;;5.27;2.40;;;17.30;99.70;;;;;;5030606;28;20944;-68
2021/08/18 08:20:05;;;;;;;4.50;2.33;;;17.40;99.70;;;;;;5031005;28;20448;-69
2021/08/18 08:22:34;;;;;;;4.83;2.50;;;17.40;99.70;;;;;;5030913;28;20839;-68
2021/08/18 08:25:00;;;;;;;4.93;2.40;;;17.40;99.70;;;;;;5030488;28;20476;-68
2021/08/18 08:27:27;;;;;;;7.50;1.70;;;17.30;99.70;;;;;;5030490;28;20455;-68
2021/08/18 08:29:54;;;;;;;3.53;1.90;;;17.30;99.70;;;;;;5030753;28;20444;-68
2021/08/18 08:32:20;;;;;;;3.77;1.70;;;17.40;99.70;;;;;;5030877;28;20452;-68
2021/08/18 08:34:47;;;;;;;3.00;1.70;;;17.50;99.70;;;;;;5030495;28;20448;-68
2021/08/18 08:37:14;;;;;;;2.97;1.87;;;17.50;99.70;;;;;;5030515;28;20519;-68
2021/08/18 08:39:42;;;;;;;2.97;1.60;;;17.60;99.70;;;;;;5030450;28;20448;-68
2021/08/18 08:42:09;;;;;;;3.73;1.80;;;17.70;99.70;;;;;;5030616;28;20448;-68
2021/08/18 08:44:36;;;;;;;3.67;1.67;;;17.70;99.70;;;;;;5030170;28;20444;-68
2021/08/18 08:47:06;;;;;;;4.57;1.57;;;17.70;99.70;;;;;;5030066;28;20464;-68
2021/08/18 08:49:34;;;;;;;3.50;1.63;;;17.90;99.70;;;;;;5030201;28;20547;-68
2021/08/18 08:52:01;;;;;;;5.60;1.80;;;17.90;99.70;;;;;;5030421;28;20940;-68
2021/08/18 08:54:28;;;;;;;4.90;1.67;;;17.70;99.70;;;;;;5030033;28;20441;-68
2021/08/18 08:56:56;;;;;;;4.27;1.87;;;17.60;99.70;;;;;;5030026;28;20766;-68
2021/08/18 08:59:23;;;;;;;3.27;1.70;;;17.40;99.70;;;;;;5029801;28;20460;-68
2021/08/18 09:02:00;;;;;;;3.10;1.47;;;17.40;99.70;;;;;;5030408;28;20452;-68
2021/08/18 09:04:28;;;;;;;4.30;1.80;;;17.20;99.70;;;;;;5029940;28;20522;-68
2021/08/18 09:07:07;;;;;;;3.07;1.60;;;17.20;99.70;;;;;;5029883;28;20484;-68
2021/08/18 09:09:35;;;;;;;2.47;1.60;;;17.00;99.70;;;;;;5029951;28;20453;-68
2021/08/18 09:12:09;;;;;;;3.50;1.53;;;17.10;99.70;;;;;;5029641;28;20448;-68
2021/08/18 09:14:36;;;;;;;2.77;1.80;;;17.10;99.70;;;;;;5029481;28;20449;-68
2021/08/18 09:17:23;;;;;;;3.30;2.10;;;17.20;99.70;;;;;;5028388;28;20460;-68
2021/08/18 09:19:58;;;;;;;5.23;1.70;;;17.30;99.70;;;;;;5026704;28;20455;-68
2021/08/18 09:22:25;;;;;;;2.43;1.30;;;17.30;99.70;;;;;;5026395;28;20464;-68
2021/08/18 09:25:08;;;;;;;3.20;1.70;;;17.20;99.70;;;;;;5028720;28;20443;-68
2021/08/18 09:27:37;;;;;;;3.00;1.70;;;17.20;99.70;;;;;;5026131;28;20666;-68
2021/08/18 09:30:05;;;;;;;3.10;1.60;;;17.20;99.70;;;;;;5028839;28;20452;-68
2021/08/18 09:32:35;;;;;;;2.97;1.27;;;17.20;99.70;;;;;;5029963;28;20471;-68
2021/08/18 09:35:06;;;;;;;3.20;1.40;;;17.20;99.70;;;;;;5029828;28;20475;-68
2021/08/18 09:37:33;;;;;;;2.30;1.40;;;17.30;99.70;;;;;;5029462;28;20944;-68
2021/08/18 09:40:02;;;;;;;2.63;1.70;;;17.30;99.70;;;;;;5030006;28;20828;-68
2021/08/18 09:42:32;;;;;;;4.43;1.30;;;17.40;99.70;;;;;;5029791;28;20444;-68
2021/08/18 09:45:19;;;;;;;3.23;1.93;;;17.40;99.70;;;;;;5029679;28;20452;-68
2021/08/18 09:47:59;;;;;;;2.13;1.27;;;17.40;99.70;;;;;;5031285;28;20448;-68
2021/08/18 09:50:27;;;;;;;2.53;1.50;;;17.30;99.70;;;;;;5033969;28;20451;-68
2021/08/18 09:52:54;;;;;;;4.03;1.53;;;17.30;99.70;;;;;;5033369;28;20975;-68
2021/08/18 09:55:23;;;;;;;3.13;1.73;;;17.20;99.70;;;;;;5033571;28;20647;-68
2021/08/18 09:57:52;;;;;;;2.43;1.30;;;17.10;99.70;;;;;;5033062;28;20444;-68
2021/08/18 10:00:20;;;;;;;3.63;1.57;;;17.00;99.70;;;;;;5033206;28;20444;-68
2021/08/18 10:02:47;;;;;;;3.43;1.50;;;16.90;99.70;;;;;;5032334;28;20437;-67
2021/08/18 10:05:14;;;;;;;2.70;1.60;;;17.00;99.70;;;;;;5032050;28;20488;-68
2021/08/18 10:07:42;;;;;;;3.03;1.30;;;17.20;99.70;;;;;;5031515;28;20449;-68
2021/08/18 10:10:09;;;;;;;2.40;1.50;;;17.40;99.70;;;;;;5031922;28;20950;-68
2021/08/18 10:12:38;;;;;;;2.13;1.40;;;17.60;99.70;;;;;;5031568;28;20445;-68
2021/08/18 10:15:07;;;;;;;2.07;1.20;;;17.90;99.70;;;;;;5028231;28;20895;-68
2021/08/18 10:17:41;;;;;;;1.80;1.30;;;18.10;99.70;;;;;;5031278;28;20440;-68
2021/08/18 10:20:09;;;;;;;1.80;1.23;;;18.40;99.70;;;;;;5029580;28;20819;-68
2021/08/18 10:22:38;;;;;;;3.10;1.30;;;18.40;99.70;;;;;;5031593;28;20452;-68
2021/08/18 10:25:47;;;;;;;1.93;1.10;;;18.40;99.70;;;;;;5031170;28;20920;-68
2021/08/18 10:28:16;;;;;;;1.80;1.10;;;18.20;99.70;;;;;;5011509;28;20467;-68
2021/08/18 10:30:49;;;;;;;1.87;1.00;;;18.20;99.70;;;;;;5031596;28;20619;-68
2021/08/18 10:33:55;;;;;;;2.17;1.40;;;18.30;99.70;;;;;;5031330;28;20444;-68
2021/08/18 10:37:01;;;;;;;1.83;1.10;;;18.30;99.70;;;;;;5030783;28;20448;-68
2021/08/18 10:39:31;;;;;;;1.87;1.10;;;18.50;99.70;;;;;;5027593;28;20877;-69
2021/08/18 10:41:59;;;;;;;1.57;1.03;;;18.60;99.70;;;;;;5031599;28;20445;-68
2021/08/18 10:44:34;;;;;;;1.73;1.10;;;19.20;99.70;;;;;;5031349;28;20449;-68
2021/08/18 10:47:39;;;;;;;1.40;1.10;;;19.20;99.70;;;;;;5030898;28;20484;-68
2021/08/18 10:50:39;;;;;;;1.50;1.00;;;19.10;99.70;;;;;;5029399;28;20471;-68
2021/08/18 10:53:28;;;;;;;1.80;1.10;;;19.20;99.70;;;;;;5029840;28;20535;-68
2021/08/18 10:55:55;;;;;;;2.10;1.20;;;19.00;99.70;;;;;;5030485;28;20476;-68
2021/08/18 10:58:28;;;;;;;1.80;1.20;;;18.70;99.70;;;;;;5030235;28;20452;-68
2021/08/18 11:00:55;;;;;;;1.70;1.30;;;18.50;99.70;;;;;;5031070;28;20452;-68
2021/08/18 11:03:26;;;;;;;1.40;1.00;;;18.40;99.70;;;;;;5031080;28;20441;-68
2021/08/18 11:05:55;;;;;;;1.60;1.10;;;18.40;99.70;;;;;;5030166;28;20507;-69
2021/08/18 11:08:26;;;;;;;1.50;1.00;;;18.20;99.70;;;;;;5030824;28;20432;-68
2021/08/18 11:11:12;;;;;;;1.70;1.10;;;18.30;99.70;;;;;;5030725;28;20452;-68
2021/08/18 11:13:41;;;;;;;1.70;1.10;;;18.40;99.70;;;;;;5030193;28;20560;-68
2021/08/18 11:16:11;;;;;;;1.77;1.10;;;18.60;99.70;;;;;;5028367;28;20493;-68
2021/08/18 11:18:44;;;;;;;2.27;1.40;;;18.60;99.70;;;;;;5031101;28;20437;-68
2021/08/18 11:21:16;;;;;;;1.63;1.10;;;18.60;99.70;;;;;;5028901;28;20451;-68
2021/08/18 11:23:50;;;;;;;1.50;1.10;;;18.70;99.70;;;;;;5030524;28;20444;-68
2021/08/18 11:26:19;;;;;;;1.60;1.07;;;18.50;99.70;;;;;;5030188;28;21067;-68
2021/08/18 11:28:52;;;;;;;1.67;1.10;;;18.60;99.70;;;;;;5030512;28;20444;-68
2021/08/18 11:31:28;;;;;;;2.10;1.30;;;18.70;99.70;;;;;;5027822;28;21014;-69
2021/08/18 11:33:55;;;;;;;2.30;1.40;;;18.70;99.70;;;;;;5030406;28;20498;-68
2021/08/18 11:36:22;;;;;;;1.90;1.20;;;18.70;99.70;;;;;;5029886;28;20460;-69
2021/08/18 11:38:59;;;;;;;2.00;1.23;;;18.70;99.70;;;;;;5030456;28;20445;-68
2021/08/18 11:41:36;;;;;;;2.17;1.40;;;18.70;99.70;;;;;;5028408;28;20440;-68
2021/08/18 11:44:04;;;;;;;1.80;1.40;;;18.70;99.70;;;;;;5030784;28;20455;-68
2021/08/18 11:46:31;;;;;;;2.77;1.27;;;18.60;99.70;;;;;;5028882;28;20487;-68
2021/08/18 11:49:05;;;;;;;1.60;1.10;;;18.60;99.70;;;;;;5030289;28;20963;-68
2021/08/18 11:51:32;;;;;;;2.07;1.37;;;18.60;99.70;;;;;;5030005;28;20443;-68
2021/08/18 11:54:00;;;;;;;2.10;1.20;;;18.60;99.70;;;;;;5030070;28;20445;-69
2021/08/18 11:56:29;;;;;;;3.03;1.40;;;18.70;99.70;;;;;;5029562;28;20460;-68
2021/08/18 11:58:58;;;;;;;2.20;1.30;;;18.70;99.70;;;;;;5030041;28;20441;-68
2021/08/18 12:01:25;;;;;;;2.03;1.40;;;18.80;99.70;;;;;;5029853;28;20467;-68
2021/08/18 12:03:52;;;;;;;2.50;1.50;;;18.80;99.70;;;;;;5029941;28;20512;-68
2021/08/18 12:06:30;;;;;;;2.77;1.40;;;18.80;99.70;;;;;;5029155;28;20618;-68
2021/08/18 12:08:57;;;;;;;2.90;1.70;;;18.90;99.70;;;;;;5029669;28;20994;-68
2021/08/18 12:11:33;;;;;;;2.30;1.20;;;19.20;99.70;;;;;;5028839;28;21018;-68
2021/08/18 12:14:10;;;;;;;1.80;1.20;;;19.30;99.70;;;;;;5029817;28;20955;-68
2021/08/18 12:16:37;;;;;;;4.70;1.57;;;19.10;99.70;;;;;;5028301;28;20463;-68
2021/08/18 12:19:21;;;;;;;2.60;1.60;;;19.00;99.70;;;;;;5029694;28;20932;-68
2021/08/18 12:22:06;;;;;;;2.47;1.50;;;19.00;99.70;;;;;;5027414;28;20453;-68
2021/08/18 12:24:34;;;;;;;2.83;1.53;;;19.30;99.70;;;;;;5027634;28;20441;-68
2021/08/18 12:27:05;;;;;;;2.20;1.30;;;19.60;99.70;;;;;;5028833;28;20488;-68
2021/08/18 12:29:32;;;;;;;2.53;1.40;;;19.40;99.70;;;;;;5029699;28;20441;-68
2021/08/18 12:32:02;;;;;;;2.30;1.30;;;19.40;99.70;;;;;;5029439;28;20441;-68
2021/08/18 12:34:34;;;;;;;1.83;1.23;;;19.40;99.70;;;;;;5026716;28;20445;-68
2021/08/18 12:37:03;;;;;;;2.50;1.53;;;19.40;99.70;;;;;;5028803;28;20496;-68
2021/08/18 12:39:31;;;;;;;2.07;1.30;;;19.20;99.70;;;;;;5026684;28;20451;-68
2021/08/18 12:41:58;;;;;;;2.23;1.40;;;19.10;99.70;;;;;;5029475;28;20452;-67
2021/08/18 12:44:32;;;;;;;2.13;1.40;;;19.10;99.70;;;;;;5028918;28;20439;-68
2021/08/18 12:47:10;;;;;;;1.60;1.17;;;19.00;99.70;;;;;;5028341;28;20492;-68
2021/08/18 12:49:41;;;;;;;2.10;1.40;;;19.10;99.70;;;;;;5027586;28;20443;-68
2021/08/18 12:52:09;;;;;;;2.20;1.30;;;19.00;99.70;;;;;;5029155;28;20532;-68
2021/08/18 12:54:36;;;;;;;3.20;1.73;;;19.00;99.70;;;;;;5028578;28;20828;-68
2021/08/18 12:57:05;;;;;;;2.40;1.40;;;19.20;99.70;;;;;;5028563;28;20464;-68
2021/08/18 12:59:34;;;;;;;2.40;1.40;;;19.30;99.70;;;;;;5026737;28;20482;-68
2021/08/18 13:02:01;;;;;;;3.20;1.60;;;19.40;99.70;;;;;;5036282;22;20500;-68
2021/08/18 13:04:28;;;;;;;2.67;1.83;;;19.50;99.70;;;;;;5029415;28;20440;-68
2021/08/18 13:06:55;;;;;;;2.77;1.60;;;19.50;99.70;;;;;;5034423;28;20480;-68
2021/08/18 13:09:21;;;;;;;2.30;1.60;;;19.60;99.70;;;;;;5036834;28;20440;-68
2021/08/18 13:11:49;;;;;;;2.20;1.50;;;19.70;99.70;;;;;;5043867;28;20463;-68
2021/08/18 13:14:17;;;;;;;2.20;1.40;;;19.50;99.70;;;;;;5048665;28;20817;-68
2021/08/18 13:16:46;;;;;;;2.60;1.60;;;19.40;99.70;;;;;;5048730;28;20935;-68
2021/08/18 13:19:13;;;;;;;2.03;1.30;;;19.30;99.70;;;;;;5048305;28;21013;-68
2021/08/18 13:21:40;;;;;;;1.97;1.30;;;19.20;99.70;;;;;;5047452;28;20460;-68
2021/08/18 13:24:07;;;;;;;2.63;1.40;;;19.20;99.70;;;;;;5048418;28;20447;-68
2021/08/18 13:26:34;;;;;;;2.60;1.73;;;19.20;99.70;;;;;;5048977;28;20490;-68
2021/08/18 13:29:01;;;;;;;2.90;1.70;;;19.00;99.70;;;;;;5049920;28;20448;-68
2021/08/18 13:31:30;;;;;;;1.80;1.20;;;19.00;99.70;;;;;;5049757;28;20499;-68
2021/08/18 13:33:59;;;;;;;1.90;1.30;;;18.90;99.70;;;;;;5049715;28;20821;-68
2021/08/18 13:36:26;;;;;;;2.27;1.30;;;18.90;99.70;;;;;;5049486;28;20448;-68
2021/08/18 13:38:53;;;;;;;3.57;1.40;;;19.00;99.70;;;;;;5049904;28;20450;-68
2021/08/18 13:44:42;;;;;;;2.40;1.30;;;19.20;99.70;;;;;;5048933;28;20433;-68
2021/08/18 13:47:09;;;;;;;3.00;1.30;;;19.20;99.70;;;;;;5049373;28;20483;-68
2021/08/18 13:49:37;;;;;;;2.10;1.30;;;19.10;99.70;;;;;;5048819;28;20443;-68
2021/08/18 13:52:05;;;;;;;2.40;1.60;;;19.20;99.70;;;;;;5049212;28;20471;-68
2021/08/18 13:54:31;;;;;;;1.90;1.30;;;19.30;99.70;;;;;;5049605;28;20443;-68
2021/08/18 13:56:58;;;;;;;1.80;1.20;;;19.30;99.70;;;;;;5049628;28;20466;-68
2021/08/18 13:59:25;;;;;;;2.73;1.40;;;19.40;99.70;;;;;;5049833;28;20493;-68
2021/08/18 14:01:51;;;;;;;3.43;1.30;;;19.50;99.70;;;;;;5049071;28;20472;-68
2021/08/18 14:04:18;;;;;;;2.43;1.40;;;19.40;99.70;;;;;;5049629;28;20451;-68
2021/08/18 14:06:46;;;;;;;1.90;1.30;;;19.40;99.70;;;;;;5049386;28;20488;-68
2021/08/18 14:09:14;;;;;;;3.67;1.70;;;19.30;99.70;;;;;;5049679;28;20450;-68
2021/08/18 14:11:41;;;;;;;1.80;1.20;;;19.20;99.70;;;;;;5049082;28;20510;-68
2021/08/18 14:14:07;;;;;;;2.00;1.20;;;19.20;99.70;;;;;;5049355;28;20539;-68
2021/08/18 14:16:34;;;;;;;2.20;1.30;;;19.10;99.70;;;;;;5049357;28;20537;-68
2021/08/18 14:19:01;;;;;;;2.10;1.20;;;19.10;99.70;;;;;;5049457;28;20448;-69
2021/08/18 14:21:28;;;;;;;1.83;1.30;;;19.10;99.70;;;;;;5049015;28;20467;-68
2021/08/18 14:23:56;;;;;;;1.70;1.30;;;18.90;99.70;;;;;;5049421;28;20447;-68
2021/08/18 14:26:22;;;;;;;1.73;1.37;;;18.90;99.70;;;;;;5048767;28;20443;-68
2021/08/18 14:28:49;;;;;;;1.60;1.10;;;18.80;99.70;;;;;;5049435;28;20447;-68
2021/08/18 14:31:16;;;;;;;2.30;1.40;;;18.80;99.70;;;;;;5049199;28;20464;-68
2021/08/18 14:33:42;;;;;;;1.90;1.37;;;18.80;99.70;;;;;;5050808;28;20447;-69
2021/08/18 14:36:09;;;;;;;2.17;1.50;;;18.80;99.70;;;;;;5052970;28;20446;-68
2021/08/18 14:38:36;;;;;;;1.63;1.10;;;18.80;99.70;;;;;;5052757;28;20436;-68
2021/08/18 14:41:04;;;;;;;1.67;1.30;;;18.90;99.70;;;;;;5052649;28;20463;-68
2021/08/18 14:43:31;;;;;;;2.43;1.30;;;19.00;99.70;;;;;;5052735;28;20446;-68
2021/08/18 14:45:58;;;;;;;1.70;1.40;;;19.10;99.70;;;;;;5052784;28;20444;-68
2021/08/18 14:48:24;;;;;;;1.97;1.10;;;19.20;99.70;;;;;;5052472;28;20486;-68
2021/08/18 14:50:51;;;;;;;2.77;1.50;;;19.40;99.70;;;;;;5052354;28;20471;-68
2021/08/18 14:53:18;;;;;;;3.87;1.50;;;19.50;99.70;;;;;;5052365;28;20466;-68
2021/08/18 14:55:45;;;;;;;2.07;1.20;;;19.50;99.70;;;;;;5052536;28;20448;-68
2021/08/18 14:58:13;;;;;;;2.20;1.30;;;19.50;99.70;;;;;;5052335;28;20815;-68
2021/08/18 15:00:40;;;;;;;1.90;1.20;;;19.40;99.70;;;;;;5051936;28;20444;-68
2021/08/18 15:03:07;;;;;;;1.93;1.20;;;19.40;99.70;;;;;;5052145;28;20455;-68
2021/08/18 15:05:35;;;;;;;2.57;1.57;;;19.40;99.70;;;;;;5052511;28;20452;-68
2021/08/18 15:08:02;;;;;;;2.10;1.30;;;19.40;99.70;;;;;;5052036;28;20475;-68
2021/08/18 15:10:28;;;;;;;1.90;1.30;;;19.40;99.70;;;;;;5051930;28;20489;-68
2021/08/18 15:12:55;;;;;;;2.20;1.30;;;19.40;99.70;;;;;;5052016;28;20444;-68
2021/08/18 15:15:23;;;;;;;1.70;1.10;;;19.30;99.70;;;;;;5052201;28;20440;-68
2021/08/18 15:17:50;;;;;;;2.23;1.40;;;19.20;99.70;;;;;;5051945;28;20440;-68
2021/08/18 15:20:16;;;;;;;1.80;1.10;;;19.10;99.70;;;;;;5051782;28;20451;-67
2021/08/18 15:22:44;;;;;;;3.37;1.53;;;19.10;99.70;;;;;;5051882;28;20578;-68
2021/08/18 15:25:12;;;;;;;2.17;1.40;;;19.00;99.70;;;;;;5051336;28;20446;-68
2021/08/18 15:27:42;;;;;;;1.90;1.27;;;18.90;99.70;;;;;;5051905;28;20862;-68
2021/08/18 15:30:10;;;;;;;1.70;1.10;;;18.80;99.70;;;;;;5051487;28;21038;-67
2021/08/18 15:32:38;;;;;;;2.00;1.50;;;18.90;99.70;;;;;;5051921;28;20467;-68
2021/08/18 15:35:05;;;;;;;2.03;1.30;;;19.00;99.70;;;;;;5051503;28;20439;-68
2021/08/18 15:37:33;;;;;;;2.30;1.30;;;19.10;99.70;;;;;;5051878;28;20463;-68
2021/08/18 15:39:59;;;;;;;2.70;1.40;;;19.20;99.70;;;;;;5051242;28;20462;-68
2021/08/18 15:42:26;;;;;;;1.77;1.20;;;19.30;99.70;;;;;;5051616;28;20468;-68
2021/08/18 15:44:53;;;;;;;2.40;1.40;;;19.40;99.70;;;;;;5050721;28;20444;-68
2021/08/18 15:47:20;;;;;;;1.63;1.20;;;19.30;99.70;;;;;;5051635;28;20490;-68
2021/08/18 15:49:48;;;;;;;3.00;1.70;;;19.30;99.70;;;;;;5051260;28;20443;-66
2021/08/18 15:52:15;;;;;;;2.27;1.40;;;19.40;99.70;;;;;;5051471;28;20472;-68
2021/08/18 15:54:42;;;;;;;2.43;1.50;;;19.40;99.70;;;;;;5051163;28;20826;-68
2021/08/18 15:57:10;;;;;;;2.73;1.30;;;19.50;99.70;;;;;;5051431;28;20439;-67
2021/08/18 15:59:38;;;;;;;2.13;1.50;;;19.50;99.70;;;;;;5051260;28;21024;-68
2021/08/18 16:02:06;;;;;;;2.60;1.50;;;19.50;99.70;;;;;;5050805;28;20479;-68
2021/08/18 16:04:32;;;;;;;2.53;1.50;;;19.50;99.70;;;;;;5051157;28;20443;-68
2021/08/18 16:07:00;;;;;;;2.47;1.67;;;19.40;99.70;;;;;;5051344;28;20451;-67
2021/08/18 16:09:27;;;;;;;3.23;1.73;;;19.50;99.70;;;;;;5051112;28;20451;-68
2021/08/18 16:11:54;;;;;;;2.80;1.70;;;19.50;99.70;;;;;;5050904;28;21064;-68
2021/08/18 16:14:20;;;;;;;1.97;1.23;;;19.40;99.70;;;;;;5051369;28;20456;-67
2021/08/18 16:16:47;;;;;;;2.03;1.30;;;19.40;99.70;;;;;;5051352;28;20444;-68
2021/08/18 16:19:14;;;;;;;2.67;1.57;;;19.40;99.70;;;;;;5051479;28;20447;-67
2021/08/18 16:21:41;;;;;;;1.70;1.20;;;19.50;99.70;;;;;;5050802;28;20464;-67
2021/08/18 16:24:09;;;;;;;1.87;1.30;;;19.50;99.70;;;;;;5051408;28;20455;-67
2021/08/18 16:26:36;;;;;;;1.70;1.27;;;19.40;99.70;;;;;;5050695;28;21004;-68